createdAt,value
2019-05-10T00:00:16.616Z,9.23
2019-05-10T00:03:04.899Z,9.19
2019-05-10T00:05:53.078Z,9.18
2019-05-10T00:08:41.372Z,9.18
2019-05-10T00:11:31.266Z,9.17
2019-05-10T00:14:21.865Z,9.18
2019-05-10T00:16:55.366Z,9.20
2019-05-10T00:19:26.196Z,9.20
2019-05-10T00:21:57.326Z,9.21
2019-05-10T00:24:28.176Z,9.19
2019-05-10T00:26:59.178Z,9.20
2019-05-10T00:29:31.058Z,9.22
2019-05-10T00:32:01.916Z,9.22
2019-05-10T00:34:32.776Z,9.24
2019-05-10T00:37:03.718Z,9.24
2019-05-10T00:39:35.016Z,9.23
2019-05-10T00:42:06.136Z,9.24
2019-05-10T00:44:36.961Z,9.24
2019-05-10T00:47:07.755Z,9.26
2019-05-10T00:49:38.706Z,9.27
2019-05-10T00:52:09.555Z,9.27
2019-05-10T00:54:40.539Z,9.26
2019-05-10T00:57:11.515Z,9.25
2019-05-10T00:59:42.355Z,9.24
2019-05-10T01:02:13.215Z,9.24
2019-05-10T01:04:44.135Z,9.24
2019-05-10T01:07:14.835Z,9.26
2019-05-10T01:09:45.736Z,9.25
2019-05-10T01:12:16.636Z,9.25
2019-05-10T01:14:47.925Z,9.27
2019-05-10T01:17:19.056Z,9.25
2019-05-10T01:19:49.976Z,9.24
2019-05-10T01:22:20.891Z,9.23
2019-05-10T01:24:51.786Z,9.24
2019-05-10T01:27:22.794Z,9.25
2019-05-10T01:29:53.686Z,9.27
2019-05-10T01:32:24.565Z,9.26
2019-05-10T01:34:55.546Z,9.25
2019-05-10T01:37:26.415Z,9.25
2019-05-10T01:39:57.156Z,9.26
2019-05-10T01:42:28.516Z,9.24
2019-05-10T01:44:59.591Z,9.24
2019-05-10T01:47:30.698Z,9.26
2019-05-10T01:50:01.477Z,9.26
2019-05-10T01:52:32.916Z,9.25
2019-05-10T01:55:03.837Z,9.26
2019-05-10T01:57:34.676Z,9.26
2019-05-10T02:00:06.126Z,9.29
2019-05-10T02:02:37.646Z,9.31
2019-05-10T02:05:09.682Z,9.31
2019-05-10T02:07:40.776Z,9.30
2019-05-10T02:10:11.756Z,9.33
2019-05-10T02:12:42.576Z,9.35
2019-05-10T02:15:13.805Z,9.35
2019-05-10T02:17:44.736Z,9.36
2019-05-10T02:20:15.656Z,9.35
2019-05-10T02:22:46.576Z,9.35
2019-05-10T02:25:17.486Z,9.35
2019-05-10T02:27:48.356Z,9.36
2019-05-10T02:30:19.239Z,9.37
2019-05-10T02:32:50.190Z,9.37
2019-05-10T02:35:21.231Z,9.37
2019-05-10T02:37:52.136Z,9.39
2019-05-10T02:40:22.961Z,9.42
2019-05-10T02:42:53.940Z,9.42
2019-05-10T02:45:24.681Z,9.45
2019-05-10T02:47:55.557Z,9.46
2019-05-10T02:50:26.971Z,9.46
2019-05-10T02:52:57.869Z,9.50
2019-05-10T02:55:28.763Z,9.49
2019-05-10T02:58:00.277Z,9.47
2019-05-10T03:00:32.597Z,9.51
2019-05-10T03:03:05.236Z,9.51
2019-05-10T03:05:37.157Z,9.50
2019-05-10T03:08:07.866Z,9.50
2019-05-10T03:10:39.146Z,9.52
2019-05-10T03:13:11.321Z,9.52
2019-05-10T03:15:42.757Z,9.52
2019-05-10T03:18:13.577Z,9.52
2019-05-10T03:20:45.958Z,9.52
2019-05-10T03:23:17.401Z,9.54
2019-05-10T03:25:48.327Z,9.58
2019-05-10T03:28:19.117Z,9.62
2019-05-10T03:30:51.028Z,9.66
2019-05-10T03:33:21.998Z,9.69
2019-05-10T03:35:53.337Z,9.72
2019-05-10T03:38:24.238Z,9.75
2019-05-10T03:40:55.466Z,9.82
2019-05-10T03:43:26.216Z,9.90
2019-05-10T03:45:57.158Z,9.99
2019-05-10T03:48:27.937Z,10.09
2019-05-10T03:50:58.888Z,10.17
2019-05-10T03:53:29.706Z,10.20
2019-05-10T03:56:00.556Z,10.23
2019-05-10T03:58:31.457Z,10.22
2019-05-10T04:01:02.204Z,10.26
2019-05-10T04:03:33.613Z,10.31
2019-05-10T04:06:04.681Z,10.35
2019-05-10T04:08:35.976Z,10.41
2019-05-10T04:11:06.877Z,10.50
2019-05-10T04:13:38.796Z,10.60
2019-05-10T04:16:09.953Z,10.76
2019-05-10T04:18:40.918Z,10.87
2019-05-10T04:21:11.862Z,10.97
2019-05-10T04:23:42.887Z,11.11
2019-05-10T04:26:13.814Z,11.24
2019-05-10T04:28:44.697Z,11.37
2019-05-10T04:31:15.657Z,11.46
2019-05-10T04:33:46.586Z,11.53
2019-05-10T04:36:17.500Z,11.65
2019-05-10T04:38:48.300Z,11.76
2019-05-10T04:41:19.498Z,11.86
2019-05-10T04:43:51.258Z,11.98
2019-05-10T04:46:22.377Z,12.08
2019-05-10T04:48:53.303Z,12.19
2019-05-10T04:51:24.197Z,12.21
2019-05-10T04:53:55.348Z,12.24
2019-05-10T04:56:26.117Z,12.28
2019-05-10T04:58:56.966Z,12.45
2019-05-10T05:01:27.818Z,12.48
2019-05-10T05:03:58.497Z,12.47
2019-05-10T05:06:29.337Z,12.45
2019-05-10T05:09:00.078Z,12.48
2019-05-10T05:11:30.934Z,12.49
2019-05-10T05:14:01.777Z,12.50
2019-05-10T05:16:32.536Z,12.50
2019-05-10T05:19:03.316Z,12.54
2019-05-10T05:21:34.097Z,12.55
2019-05-10T05:24:04.836Z,12.46
2019-05-10T05:26:35.676Z,12.48
2019-05-10T05:29:06.506Z,12.47
2019-05-10T05:31:38.276Z,12.48
2019-05-10T05:34:09.298Z,12.40
2019-05-10T05:36:40.138Z,12.39
2019-05-10T05:39:11.107Z,12.46
2019-05-10T05:41:48.901Z,12.50
2019-05-10T05:44:14.496Z,12.59
2019-05-10T05:46:45.301Z,12.75
2019-05-10T05:49:16.206Z,12.89
2019-05-10T05:51:47.217Z,12.96
2019-05-10T05:54:20.831Z,13.01
2019-05-10T05:56:52.990Z,13.13
2019-05-10T05:59:25.934Z,13.20
2019-05-10T06:02:00.470Z,13.11
2019-05-10T06:04:29.176Z,13.12
2019-05-10T06:07:00.583Z,13.23
2019-05-10T06:09:31.962Z,13.49
2019-05-10T06:12:07.390Z,13.68
2019-05-10T06:14:36.936Z,13.88
2019-05-10T06:17:08.056Z,13.77
2019-05-10T06:19:39.081Z,13.75
2019-05-10T06:22:10.436Z,13.93
2019-05-10T06:24:41.386Z,13.95
2019-05-10T06:27:12.241Z,13.86
2019-05-10T06:29:43.292Z,13.83
2019-05-10T06:32:14.217Z,13.81
2019-05-10T06:34:45.107Z,13.65
2019-05-10T06:37:16.136Z,13.64
2019-05-10T06:39:46.976Z,13.57
2019-05-10T06:42:17.866Z,13.38
2019-05-10T06:44:49.896Z,13.41
2019-05-10T06:47:21.998Z,13.49
2019-05-10T06:49:53.910Z,13.46
2019-05-10T06:52:28.030Z,13.41
2019-05-10T06:54:58.717Z,13.35
2019-05-10T06:57:32.276Z,13.29
2019-05-10T07:00:06.388Z,13.30
2019-05-10T07:02:35.920Z,13.35
2019-05-10T07:05:10.727Z,13.33
2019-05-10T07:07:44.567Z,13.34
2019-05-10T07:10:19.106Z,13.29
2019-05-10T07:12:47.379Z,13.25
2019-05-10T07:15:19.096Z,13.12
2019-05-10T07:17:49.916Z,13.14
2019-05-10T07:20:23.606Z,13.23
2019-05-10T07:22:53.095Z,13.40
2019-05-10T07:25:23.816Z,13.48
2019-05-10T07:27:54.686Z,13.63
2019-05-10T07:30:32.379Z,13.70
2019-05-10T07:33:03.186Z,13.74
2019-05-10T07:35:36.883Z,13.65
2019-05-10T07:38:06.796Z,13.60
2019-05-10T07:40:38.076Z,13.53
2019-05-10T07:43:09.111Z,13.37
2019-05-10T07:45:40.356Z,13.29
2019-05-10T07:48:11.368Z,13.32
2019-05-10T07:50:48.997Z,13.40
2019-05-10T07:53:16.260Z,13.46
2019-05-10T07:55:48.176Z,13.48
2019-05-10T07:58:19.067Z,13.52
2019-05-10T08:00:50.956Z,13.55
2019-05-10T08:03:23.844Z,13.55
2019-05-10T08:05:58.037Z,13.51
2019-05-10T08:08:29.475Z,13.33
2019-05-10T08:10:59.508Z,13.31
2019-05-10T08:13:30.616Z,13.32
2019-05-10T08:16:05.512Z,13.40
2019-05-10T08:18:34.316Z,13.39
2019-05-10T08:21:18.747Z,13.44
2019-05-10T08:23:37.496Z,13.64
2019-05-10T08:26:11.055Z,13.77
2019-05-10T08:28:44.478Z,14.06
2019-05-10T08:31:13.317Z,14.15
2019-05-10T08:33:56.186Z,14.16
2019-05-10T08:36:17.716Z,14.41
2019-05-10T08:38:59.353Z,14.61
2019-05-10T08:41:22.382Z,14.95
2019-05-10T08:43:54.556Z,15.58
2019-05-10T08:46:34.986Z,15.74
2019-05-10T08:48:58.038Z,15.34
2019-05-10T08:51:29.097Z,15.16
2019-05-10T08:54:01.815Z,15.17
2019-05-10T08:56:33.410Z,15.07
2019-05-10T08:59:09.542Z,14.88
2019-05-10T09:01:44.446Z,14.87
2019-05-10T09:04:11.669Z,14.85
2019-05-10T09:06:47.560Z,14.78
2019-05-10T09:09:15.319Z,14.49
2019-05-10T09:11:46.560Z,14.46
2019-05-10T09:14:20.271Z,14.61
2019-05-10T09:16:57.594Z,14.63
2019-05-10T09:19:27.720Z,14.62
2019-05-10T09:21:55.786Z,14.72
2019-05-10T09:24:26.616Z,14.84
2019-05-10T09:26:58.417Z,14.71
2019-05-10T09:29:35.154Z,14.55
2019-05-10T09:32:06.216Z,14.45
2019-05-10T09:34:34.518Z,14.35
2019-05-10T09:37:07.925Z,14.32
2019-05-10T09:39:37.808Z,14.29
2019-05-10T09:42:10.959Z,14.37
2019-05-10T09:44:45.658Z,14.49
2019-05-10T09:47:13.750Z,14.52
2019-05-10T09:49:52.936Z,14.56
2019-05-10T09:52:18.751Z,14.67
2019-05-10T09:54:49.796Z,14.68
2019-05-10T09:57:21.502Z,14.75
2019-05-10T09:59:52.236Z,14.61
2019-05-10T10:02:33.655Z,14.29
2019-05-10T10:05:07.005Z,14.04
2019-05-10T10:07:37.596Z,13.98
2019-05-10T10:10:12.679Z,13.99
2019-05-10T10:12:42.847Z,13.83
2019-05-10T10:15:25.224Z,13.83
2019-05-10T10:17:47.728Z,13.85
2019-05-10T10:20:18.756Z,13.88
2019-05-10T10:22:54.329Z,13.86
2019-05-10T10:25:23.077Z,13.97
2019-05-10T10:27:53.916Z,14.04
2019-05-10T10:30:27.549Z,14.21
2019-05-10T10:32:58.099Z,14.36
2019-05-10T10:35:29.856Z,14.39
2019-05-10T10:38:02.809Z,14.71
2019-05-10T10:40:41.643Z,14.99
2019-05-10T10:43:07.461Z,15.76
2019-05-10T10:45:38.646Z,16.20
2019-05-10T10:48:12.799Z,16.28
2019-05-10T10:50:44.420Z,16.25
2019-05-10T10:53:14.358Z,15.91
2019-05-10T10:55:53.776Z,15.38
2019-05-10T10:58:18.766Z,15.25
2019-05-10T11:00:49.826Z,15.14
2019-05-10T11:03:23.925Z,14.96
2019-05-10T11:05:53.621Z,14.86
2019-05-10T11:08:24.407Z,14.74
2019-05-10T11:10:55.346Z,14.78
2019-05-10T11:13:41.613Z,15.06
2019-05-10T11:15:59.070Z,15.64
2019-05-10T11:18:31.761Z,16.47
2019-05-10T11:21:03.566Z,17.76
2019-05-10T11:23:39.182Z,18.76
2019-05-10T11:26:06.957Z,19.02
2019-05-10T11:28:43.470Z,18.20
2019-05-10T11:31:11.413Z,17.72
2019-05-10T11:33:47.250Z,17.69
2019-05-10T11:36:14.537Z,17.53
2019-05-10T11:38:47.111Z,18.14
2019-05-10T11:41:22.068Z,19.20
2019-05-10T11:43:50.237Z,19.98
2019-05-10T11:46:21.030Z,20.41
2019-05-10T11:48:51.956Z,20.68
2019-05-10T11:51:22.804Z,20.67
2019-05-10T11:53:55.538Z,20.94
2019-05-10T11:56:27.827Z,21.15
2019-05-10T11:59:02.178Z,20.98
2019-05-10T12:01:32.976Z,21.08
2019-05-10T12:04:05.092Z,20.29
2019-05-10T12:06:41.457Z,19.92
2019-05-10T12:09:15.007Z,19.36
2019-05-10T12:11:51.909Z,20.52
2019-05-10T12:14:18.545Z,21.45
2019-05-10T12:16:54.211Z,21.49
2019-05-10T12:19:22.127Z,21.23
2019-05-10T12:21:56.106Z,21.49
2019-05-10T12:24:46.266Z,21.83
2019-05-10T12:27:17.340Z,21.53
2019-05-10T12:29:32.159Z,21.17
2019-05-10T12:32:03.236Z,21.48
2019-05-10T12:34:34.117Z,21.53
2019-05-10T12:37:08.265Z,21.60
2019-05-10T12:39:37.507Z,21.60
2019-05-10T12:42:08.226Z,21.87
2019-05-10T12:44:44.017Z,22.00
2019-05-10T12:47:11.756Z,22.44
2019-05-10T12:49:43.556Z,22.00
2019-05-10T12:52:16.173Z,22.36
2019-05-10T12:54:46.756Z,22.48
2019-05-10T12:57:17.497Z,22.39
2019-05-10T12:59:48.266Z,22.35
2019-05-10T13:02:19.126Z,22.54
2019-05-10T13:04:52.466Z,22.31
2019-05-10T13:07:23.377Z,22.24
2019-05-10T13:10:01.415Z,22.48
2019-05-10T13:12:26.766Z,22.05
2019-05-10T13:14:57.546Z,21.44
2019-05-10T13:17:30.030Z,20.96
2019-05-10T13:20:00.899Z,21.20
2019-05-10T13:22:36.649Z,21.65
2019-05-10T13:25:04.236Z,22.25
2019-05-10T13:27:35.086Z,22.21
2019-05-10T13:30:06.606Z,22.16
2019-05-10T13:32:37.336Z,22.02
2019-05-10T13:35:08.376Z,22.14
2019-05-10T13:37:39.248Z,22.10
2019-05-10T13:40:10.147Z,22.56
2019-05-10T13:42:45.811Z,22.79
2019-05-10T13:45:15.887Z,22.89
2019-05-10T13:47:46.851Z,23.24
2019-05-10T13:50:17.837Z,23.13
2019-05-10T13:52:48.670Z,22.96
2019-05-10T13:55:19.596Z,22.46
2019-05-10T13:57:53.882Z,21.54
2019-05-10T14:00:33.077Z,21.69
2019-05-10T14:02:57.113Z,21.98
2019-05-10T14:05:27.901Z,22.51
2019-05-10T14:07:58.696Z,22.15
2019-05-10T14:10:29.656Z,22.12
2019-05-10T14:13:02.341Z,22.18
2019-05-10T14:15:33.064Z,22.52
2019-05-10T14:18:03.987Z,22.38
2019-05-10T14:20:34.776Z,22.61
2019-05-10T14:23:05.557Z,22.77
2019-05-10T14:25:38.700Z,22.46
2019-05-10T14:28:15.151Z,22.50
2019-05-10T14:30:46.982Z,22.38
2019-05-10T14:33:17.041Z,21.95
2019-05-10T14:35:48.116Z,21.72
2019-05-10T14:38:22.390Z,21.72
2019-05-10T14:40:51.566Z,21.29
2019-05-10T14:43:22.336Z,21.47
2019-05-10T14:45:53.176Z,21.44
2019-05-10T14:48:29.113Z,20.96
2019-05-10T14:51:02.898Z,21.05
2019-05-10T14:53:30.487Z,21.08
2019-05-10T14:56:01.387Z,21.58
2019-05-10T14:58:33.126Z,22.00
2019-05-10T15:01:03.886Z,22.17
2019-05-10T15:03:44.391Z,22.45
2019-05-10T15:06:07.276Z,22.37
2019-05-10T15:08:37.987Z,22.40
2019-05-10T15:11:08.856Z,22.32
2019-05-10T15:13:39.576Z,22.42
2019-05-10T15:16:13.170Z,22.12
2019-05-10T15:18:42.906Z,21.67
2019-05-10T15:21:13.797Z,21.31
2019-05-10T15:23:44.657Z,20.93
2019-05-10T15:26:16.726Z,20.76
2019-05-10T15:28:47.646Z,20.84
2019-05-10T15:31:18.416Z,20.76
2019-05-10T15:33:49.166Z,20.48
2019-05-10T15:36:23.687Z,20.30
2019-05-10T15:38:53.639Z,20.13
2019-05-10T15:41:24.321Z,20.01
2019-05-10T15:43:55.239Z,20.03
2019-05-10T15:46:35.434Z,20.02
2019-05-10T15:48:58.556Z,19.89
2019-05-10T15:51:36.171Z,19.77
2019-05-10T15:54:05.151Z,19.65
2019-05-10T15:56:35.647Z,19.48
2019-05-10T15:59:12.961Z,19.37
2019-05-10T16:01:45.499Z,19.18
2019-05-10T16:04:14.957Z,18.99
2019-05-10T16:06:45.703Z,18.74
2019-05-10T16:09:18.911Z,18.65
2019-05-10T16:11:49.189Z,18.52
2019-05-10T16:14:21.317Z,18.38
2019-05-10T16:16:52.077Z,18.30
2019-05-10T16:19:22.997Z,18.24
2019-05-10T16:21:54.678Z,18.23
2019-05-10T16:24:28.053Z,18.15
2019-05-10T16:27:00.152Z,18.08
2019-05-10T16:29:33.827Z,18.06
2019-05-10T16:32:05.514Z,18.07
2019-05-10T16:34:38.096Z,18.02
2019-05-10T16:37:09.056Z,17.89
2019-05-10T16:39:39.867Z,17.84
2019-05-10T16:42:10.667Z,17.76
2019-05-10T16:44:42.976Z,17.67
2019-05-10T16:50:46.586Z,17.57
2019-05-10T16:53:17.456Z,17.50
2019-05-10T16:55:53.896Z,17.44
2019-05-10T16:58:38.786Z,17.37
2019-05-10T17:01:27.705Z,17.35
2019-05-10T17:04:00.333Z,17.30
2019-05-10T17:06:35.372Z,17.21
2019-05-10T17:09:09.455Z,17.08
2019-05-10T17:11:41.439Z,16.97
2019-05-10T17:14:17.951Z,16.84
2019-05-10T17:16:49.590Z,16.69
2019-05-10T17:19:18.037Z,16.57
2019-05-10T17:21:49.166Z,16.49
2019-05-10T17:24:24.081Z,16.33
2019-05-10T17:26:52.586Z,16.23
2019-05-10T17:29:23.416Z,16.14
2019-05-10T17:31:54.136Z,16.04
2019-05-10T17:34:29.536Z,15.96
2019-05-10T17:36:58.381Z,15.87
2019-05-10T17:39:32.025Z,15.79
2019-05-10T17:42:03.375Z,15.70
2019-05-10T17:44:34.737Z,15.68
2019-05-10T17:47:05.448Z,15.56
2019-05-10T17:49:36.317Z,15.44
2019-05-10T17:52:07.137Z,15.31
2019-05-10T17:54:39.546Z,15.14
2019-05-10T18:07:56.407Z,14.41
2019-05-10T18:10:30.956Z,14.19
2019-05-10T18:13:03.499Z,13.96
2019-05-10T18:16:09.099Z,13.78
2019-05-10T18:31:21.958Z,12.92
2019-05-10T18:33:54.519Z,12.80
2019-05-10T18:37:00.779Z,12.72
2019-05-10T18:39:35.396Z,12.62
2019-05-10T18:42:13.442Z,12.51
2019-05-10T18:44:52.109Z,12.41
2019-05-10T18:47:35.967Z,12.35
2019-05-10T18:50:07.107Z,12.27
2019-05-10T18:52:41.018Z,12.19
2019-05-10T18:55:17.326Z,12.12
2019-05-10T18:57:59.986Z,12.06
2019-05-10T19:00:36.370Z,11.97
2019-05-10T19:03:20.656Z,11.93
2019-05-10T19:06:03.955Z,11.88
2019-05-10T19:08:32.157Z,11.84
2019-05-10T19:11:23.757Z,11.76
2019-05-10T19:13:58.028Z,11.68
2019-05-10T19:16:44.457Z,11.58
2019-05-10T19:19:24.116Z,11.53
2019-05-10T19:22:08.959Z,11.44
2019-05-10T19:24:44.757Z,11.36
2019-05-10T19:27:44.733Z,11.26
2019-05-10T19:31:20.157Z,11.15
2019-05-10T19:34:00.248Z,11.06
2019-05-10T19:36:42.531Z,10.97
2019-05-10T19:39:18.036Z,10.93
2019-05-10T19:42:03.194Z,10.90
2019-05-10T19:45:13.042Z,10.87
2019-05-10T19:48:07.457Z,10.80
2019-05-10T19:50:45.546Z,10.75
2019-05-10T19:53:23.617Z,10.67
2019-05-10T19:56:30.129Z,10.62
2019-05-10T19:59:18.627Z,10.56
2019-05-10T20:01:45.616Z,10.50
2019-05-10T20:04:16.857Z,10.44
2019-05-10T20:07:00.648Z,10.37
2019-05-10T20:13:02.885Z,10.27
2019-05-10T20:15:55.795Z,10.22
2019-05-10T20:22:17.866Z,10.10
2019-05-10T20:25:02.750Z,10.13
2019-05-10T20:39:22.315Z,9.77
2019-05-10T20:41:53.206Z,9.69
2019-05-10T20:44:24.470Z,9.66
2019-05-10T20:46:58.185Z,9.51
2019-05-10T20:49:35.465Z,9.48
2019-05-10T20:52:06.754Z,9.45
2019-05-10T20:54:37.756Z,9.39
2019-05-10T20:57:12.925Z,9.40
2019-05-10T20:59:46.596Z,9.38
2019-05-10T21:02:51.115Z,9.26
2019-05-10T21:05:23.295Z,9.32
2019-05-10T21:08:17.295Z,9.53
2019-05-10T21:10:50.856Z,9.59
2019-05-10T21:13:24.395Z,9.58
2019-05-10T21:15:55.235Z,9.46
2019-05-10T21:18:26.065Z,9.44
2019-05-10T21:20:57.185Z,9.31
2019-05-10T21:23:30.925Z,9.23
2019-05-10T21:26:02.896Z,9.21
2019-05-10T21:28:34.646Z,9.18
2019-05-10T21:31:05.735Z,9.19
2019-05-10T21:33:36.655Z,9.27
2019-05-10T21:36:07.655Z,9.19
2019-05-10T21:38:41.546Z,9.11
2019-05-10T21:41:10.896Z,9.09
2019-05-10T21:43:41.597Z,9.04
2019-05-10T21:46:12.295Z,8.99
2019-05-10T21:48:43.165Z,8.91
2019-05-10T21:51:14.055Z,8.87
2019-05-10T21:53:44.756Z,8.80
2019-05-10T21:56:15.617Z,8.72
2019-05-10T21:58:46.507Z,8.64
2019-05-10T22:01:17.335Z,8.59
2019-05-10T22:03:48.231Z,8.57
2019-05-10T22:06:19.275Z,8.56
2019-05-10T22:08:50.090Z,8.50
2019-05-10T22:11:20.875Z,8.52
2019-05-10T22:13:51.735Z,8.53
2019-05-10T22:16:22.595Z,8.55
2019-05-10T22:19:05.135Z,8.55
2019-05-10T22:21:36.005Z,8.55
2019-05-10T22:24:06.815Z,8.53
2019-05-10T22:26:37.655Z,8.50
2019-05-10T22:29:08.395Z,8.44
2019-05-10T22:31:39.243Z,8.38
2019-05-10T22:34:10.135Z,8.38
2019-05-10T22:36:40.875Z,8.36
2019-05-10T22:39:11.785Z,8.33
2019-05-10T22:41:42.721Z,8.31
2019-05-10T22:44:13.525Z,8.27
2019-05-10T22:46:44.187Z,8.24
2019-05-10T22:49:18.225Z,8.23
2019-05-10T22:51:49.086Z,8.25
2019-05-10T22:54:19.845Z,8.21
2019-05-10T22:56:50.665Z,8.20
2019-05-10T22:59:21.385Z,8.21
2019-05-10T23:01:52.825Z,8.31
2019-05-10T23:04:23.625Z,8.47
2019-05-10T23:06:54.345Z,8.67
2019-05-10T23:09:26.325Z,8.87
2019-05-10T23:11:57.105Z,9.02
2019-05-10T23:14:27.965Z,9.15
2019-05-10T23:16:59.255Z,9.28
2019-05-10T23:19:29.986Z,9.39
2019-05-10T23:22:00.705Z,9.52
2019-05-10T23:24:40.585Z,9.39
2019-05-10T23:27:11.285Z,9.24
2019-05-10T23:29:42.045Z,9.20
2019-05-10T23:32:13.985Z,9.22
2019-05-10T23:34:44.835Z,9.17
2019-05-10T23:37:15.567Z,8.96
2019-05-10T23:39:46.505Z,8.79
2019-05-10T23:42:17.495Z,8.64
2019-05-10T23:44:48.656Z,8.57
2019-05-10T23:47:19.648Z,8.47
2019-05-10T23:49:50.305Z,8.44
2019-05-10T23:52:21.175Z,8.42
2019-05-10T23:54:54.734Z,8.40
2019-05-10T23:57:32.745Z,8.39
